Hammond, OR

9:40 AM PDT on September 03, 2015 (GMT -0700)
Long Lakes II | | Change Station
CLOSE
Current Station
Personal Weather Station
Location: Warrenton, OR
Elevation: 56 ft
Nearby Weather Stations

Elev 56 ft 46.15 °N, 123.94 °W | Updated 18 seconds ago

Clear
Clear
58.5 °F
Feels Like 58.5 °F
N
2.9
Wind Variable Wind from WNW
Gusts 4.0 mph

Today
High -- | Low -- °F
--% Chance of Precip.
Yesterday
High -- | Low -- °F
Precip. -- in
6:38 AM 7:50 PM
Waning Gibbous, 69% visible
Pressure 30.03 in
Visibility 10.0 miles
Clouds Few 3000 ft
Mostly Cloudy 4200 ft
Dew Point 56 °F
Humidity 93%
Rainfall 0.00 in
Snow Depth Not available.
UV 1 out of 12
Pollen .90 out of 12
Air Quality Not available.
Flu Activity Not available.
METAR KAST 031555Z AUTO 12003KT 10SM FEW030 BKN042 12/11 A3003 RMK AO2 SLP168 T01220111
Pressure 30.03 in
Visibility 10.0 miles
Clouds Few 3000 ft
Mostly Cloudy 4200 ft
Dew Point 56 °F
Humidity 93%
Rainfall 0.00 in
Snow Depth Not available.
UV 1 out of 12
Pollen .90 out of 12
Air Quality Not available.
Flu Activity Not available.
METAR KAST 031555Z AUTO 12003KT 10SM FEW030 BKN042 12/11 A3003 RMK AO2 SLP168 T01220111

10-Day Weather Forecast

×

Almanac

Astronomy

Sep. 03, 2015 Rise Set
Actual Time
Civil Twilight
Nautical Twilight
Astronomical Twilight
Moon
Length of Visible Light
Length of Day
Tomorrow will be .
, % of the Moon is Illuminated

Today's Extremes

State Highs State Lows

Community

WunderPhotos

Upload Photos

1,851,988 photos uploaded!

WunderBlogs® & News

Nearby

Air Quality

  Air Quality AQ Index Pollutant
Not available.

Snow Depth

Station Depth Elevation

Earthquake Activity

City Distance Mag. Time & Date
Minimum magnitude displayed is 2.5.

Coastal Water Temperatures

Place Temperature

Stations

Nearby Weather Stations

Station Location Temp. Windchill Dew Point Humidity Wind Precip. Elev Updated Type